createdAt,value
2019-05-25T00:01:57.717Z,6.53
2019-05-25T00:04:24.464Z,5.10
2019-05-25T00:06:51.544Z,6.07
2019-05-25T00:09:18.204Z,4.23
2019-05-25T00:11:45.225Z,5.37
2019-05-25T00:14:11.771Z,4.83
2019-05-25T00:16:38.705Z,5.07
2019-05-25T00:19:05.848Z,4.20
2019-05-25T00:21:32.373Z,4.70
2019-05-25T00:24:11.117Z,6.40
2019-05-25T00:26:27.612Z,5.80
2019-05-25T00:28:54.508Z,6.53
2019-05-25T00:31:21.251Z,4.33
2019-05-25T00:33:47.855Z,6.27
2019-05-25T00:36:14.491Z,5.60
2019-05-25T00:38:41.150Z,6.07
2019-05-25T00:41:08.127Z,5.50
2019-05-25T00:43:34.660Z,4.60
2019-05-25T00:46:01.325Z,5.07
2019-05-25T00:48:27.993Z,6.17
2019-05-25T00:50:54.798Z,7.17
2019-05-25T00:53:21.421Z,6.53
2019-05-25T00:55:48.195Z,5.00
2019-05-25T00:58:14.891Z,8.80
2019-05-25T01:00:41.564Z,5.50
2019-05-25T01:03:08.388Z,3.93
2019-05-25T01:05:35.338Z,6.10
2019-05-25T01:08:02.023Z,5.07
2019-05-25T01:10:28.768Z,5.70
2019-05-25T01:12:55.329Z,5.73
2019-05-25T01:15:22.791Z,4.70
2019-05-25T01:17:49.345Z,5.87
2019-05-25T01:20:16.572Z,4.33
2019-05-25T01:22:43.343Z,6.50
2019-05-25T01:25:10.359Z,4.77
2019-05-25T01:27:37.678Z,5.20
2019-05-25T01:30:05.236Z,5.23
2019-05-25T01:32:31.794Z,7.10
2019-05-25T01:34:58.564Z,5.77
2019-05-25T01:37:25.095Z,7.50
2019-05-25T01:39:51.769Z,5.00
2019-05-25T01:42:18.410Z,4.67
2019-05-25T01:44:45.046Z,5.33
2019-05-25T01:47:11.708Z,5.50
2019-05-25T01:49:38.381Z,5.53
2019-05-25T01:52:05.275Z,5.00
2019-05-25T01:54:31.928Z,3.67
2019-05-25T01:56:58.851Z,5.17
2019-05-25T01:59:25.934Z,5.90
2019-05-25T02:01:52.565Z,4.53
2019-05-25T02:04:19.323Z,4.90
2019-05-25T02:06:45.859Z,4.37
2019-05-25T02:09:12.614Z,5.33
2019-05-25T02:11:39.355Z,4.17
2019-05-25T02:14:06.093Z,4.87
2019-05-25T02:16:32.754Z,5.67
2019-05-25T02:18:59.294Z,5.87
2019-05-25T02:21:25.911Z,5.00
2019-05-25T02:23:52.587Z,6.87
2019-05-25T02:26:19.377Z,5.47
2019-05-25T02:28:46.014Z,5.10
2019-05-25T02:31:12.756Z,6.03
2019-05-25T02:33:39.415Z,4.73
2019-05-25T02:36:06.070Z,4.90
2019-05-25T02:38:32.736Z,6.47
2019-05-25T02:40:59.684Z,5.57
2019-05-25T02:43:26.450Z,5.77
2019-05-25T02:45:53.084Z,4.63
2019-05-25T02:48:19.841Z,5.93
2019-05-25T02:50:46.673Z,6.03
2019-05-25T02:53:13.606Z,5.27
2019-05-25T02:55:40.614Z,5.17
2019-05-25T02:58:07.183Z,5.07
2019-05-25T03:00:34.352Z,5.57
2019-05-25T03:03:01.683Z,5.53
2019-05-25T03:05:31.280Z,7.80
2019-05-25T03:07:58.842Z,5.37
2019-05-25T03:10:25.837Z,6.03
2019-05-25T03:12:52.493Z,6.80
2019-05-25T03:15:19.248Z,6.60
2019-05-25T03:17:45.892Z,5.43
2019-05-25T03:20:12.758Z,7.53
2019-05-25T03:22:39.632Z,5.87
2019-05-25T03:25:06.746Z,5.63
2019-05-25T03:27:33.373Z,5.67
2019-05-25T03:29:59.979Z,5.60
2019-05-25T03:32:26.621Z,4.67
2019-05-25T03:34:53.847Z,6.07
2019-05-25T03:37:20.747Z,5.53
2019-05-25T03:39:47.846Z,7.33
2019-05-25T03:42:14.510Z,6.63
2019-05-25T03:44:41.044Z,7.97
2019-05-25T03:47:07.785Z,6.13
2019-05-25T03:49:34.438Z,7.30
2019-05-25T03:52:01.285Z,5.57
2019-05-25T03:54:27.956Z,6.60
2019-05-25T03:56:54.999Z,6.50
2019-05-25T03:59:21.744Z,6.20
2019-05-25T04:01:48.403Z,8.00
2019-05-25T04:04:15.179Z,7.23
2019-05-25T04:06:41.838Z,7.73
2019-05-25T04:09:08.745Z,6.37
2019-05-25T04:11:35.499Z,6.57
2019-05-25T04:14:02.248Z,6.67
2019-05-25T04:16:28.807Z,7.83
2019-05-25T04:18:55.822Z,7.37
2019-05-25T04:21:22.752Z,6.43
2019-05-25T04:23:49.661Z,6.37
2019-05-25T04:26:22.431Z,8.30
2019-05-25T04:28:46.164Z,6.87
2019-05-25T04:31:13.101Z,7.80
2019-05-25T04:33:39.785Z,7.73
2019-05-25T04:36:06.630Z,8.37
2019-05-25T04:38:33.283Z,6.93
2019-05-25T04:40:59.962Z,9.47
2019-05-25T04:43:26.647Z,7.07
2019-05-25T04:45:53.404Z,7.00
2019-05-25T04:48:20.104Z,9.40
2019-05-25T04:50:46.774Z,9.13
2019-05-25T04:53:13.587Z,8.30
2019-05-25T04:55:40.248Z,7.97
2019-05-25T04:58:07.088Z,8.67
2019-05-25T05:00:33.741Z,6.70
2019-05-25T05:03:00.443Z,8.10
2019-05-25T05:05:27.092Z,7.03
2019-05-25T05:07:53.855Z,7.10
2019-05-25T05:10:20.882Z,6.63
2019-05-25T05:12:47.564Z,7.87
2019-05-25T05:15:14.296Z,7.13
2019-05-25T05:17:41.091Z,7.50
2019-05-25T05:20:08.339Z,7.90
2019-05-25T05:22:35.518Z,7.30
2019-05-25T05:25:02.545Z,5.60
2019-05-25T05:27:29.495Z,5.93
2019-05-25T05:29:56.293Z,8.53
2019-05-25T05:32:27.572Z,7.93
2019-05-25T05:34:52.708Z,6.33
2019-05-25T05:37:19.612Z,6.77
2019-05-25T05:39:46.930Z,6.83
2019-05-25T05:42:13.912Z,8.87
2019-05-25T05:44:40.818Z,8.37
2019-05-25T05:47:10.374Z,7.40
2019-05-25T05:49:36.808Z,8.40
2019-05-25T05:52:03.645Z,7.20
2019-05-25T05:54:30.952Z,6.63
2019-05-25T05:57:11.185Z,7.57
2019-05-25T05:59:27.560Z,7.90
2019-05-25T06:01:54.340Z,8.80
2019-05-25T06:04:21.231Z,8.33
2019-05-25T06:06:47.924Z,8.17
2019-05-25T06:09:14.627Z,8.17
2019-05-25T06:11:41.329Z,8.57
2019-05-25T06:14:08.209Z,9.53
2019-05-25T06:16:34.914Z,7.53
2019-05-25T06:19:01.721Z,11.30
2019-05-25T06:21:28.494Z,7.50
2019-05-25T06:23:55.697Z,6.83
2019-05-25T06:26:22.560Z,8.83
2019-05-25T06:28:49.241Z,7.07
2019-05-25T06:31:16.125Z,8.83
2019-05-25T06:33:42.728Z,8.73
2019-05-25T06:36:09.368Z,7.10
2019-05-25T06:38:35.940Z,6.47
2019-05-25T06:41:04.322Z,7.43
2019-05-25T06:43:32.144Z,8.13
2019-05-25T06:45:58.991Z,7.90
2019-05-25T06:48:25.681Z,7.93
2019-05-25T06:50:52.586Z,7.10
2019-05-25T06:53:19.247Z,8.23
2019-05-25T06:55:46.049Z,8.07
2019-05-25T06:58:15.912Z,7.57
2019-05-25T07:00:43.228Z,8.60
2019-05-25T07:03:10.015Z,8.43
2019-05-25T07:05:36.807Z,8.10
2019-05-25T07:08:04.049Z,10.17
2019-05-25T07:10:30.853Z,6.70
2019-05-25T07:12:57.679Z,8.63
2019-05-25T07:15:24.433Z,10.53
2019-05-25T07:17:51.126Z,8.80
2019-05-25T07:20:17.889Z,7.83
2019-05-25T07:22:44.507Z,9.27
2019-05-25T07:25:13.077Z,9.43
2019-05-25T07:27:39.613Z,7.80
2019-05-25T07:30:07.154Z,11.50
2019-05-25T07:32:34.441Z,8.00
2019-05-25T07:35:01.104Z,7.90
2019-05-25T07:37:27.765Z,8.87
2019-05-25T07:39:54.442Z,7.53
2019-05-25T07:42:21.097Z,10.67
2019-05-25T07:44:47.951Z,8.90
2019-05-25T07:47:14.702Z,8.13
2019-05-25T07:49:41.505Z,7.87
2019-05-25T07:52:08.037Z,8.57
2019-05-25T07:54:34.787Z,7.00
2019-05-25T07:57:01.464Z,7.57
2019-05-25T07:59:28.283Z,7.60
2019-05-25T08:01:55.164Z,8.80
2019-05-25T08:04:21.840Z,7.17
2019-05-25T08:06:48.577Z,9.37
2019-05-25T08:09:15.436Z,11.63
2019-05-25T08:11:42.387Z,7.23
2019-05-25T08:14:09.111Z,8.47
2019-05-25T08:16:35.836Z,9.03
2019-05-25T08:19:02.693Z,8.87
2019-05-25T08:21:29.443Z,7.37
2019-05-25T08:23:56.184Z,6.53
2019-05-25T08:26:22.999Z,8.03
2019-05-25T08:28:49.910Z,7.87
2019-05-25T08:31:17.266Z,8.17
2019-05-25T08:33:44.001Z,6.87
2019-05-25T08:36:10.725Z,6.63
2019-05-25T08:38:37.580Z,6.60
2019-05-25T08:41:04.261Z,6.07
2019-05-25T08:43:31.027Z,7.73
2019-05-25T08:45:57.798Z,5.73
2019-05-25T08:48:24.640Z,6.43
2019-05-25T08:50:51.341Z,5.13
2019-05-25T08:53:22.825Z,6.20
2019-05-25T08:55:46.827Z,4.87
2019-05-25T08:58:13.607Z,5.03
2019-05-25T09:00:40.528Z,6.97
2019-05-25T09:03:07.252Z,5.80
2019-05-25T09:05:34.035Z,4.87
2019-05-25T09:08:00.999Z,4.97
2019-05-25T09:10:27.646Z,6.43
2019-05-25T09:12:54.475Z,8.57
2019-05-25T09:15:21.139Z,5.00
2019-05-25T09:17:47.747Z,5.73
2019-05-25T09:20:14.468Z,10.53
2019-05-25T09:22:41.254Z,3.80
2019-05-25T09:25:08.453Z,6.33
2019-05-25T09:27:35.296Z,3.77
2019-05-25T09:30:02.116Z,5.30
2019-05-25T09:32:28.909Z,4.00
2019-05-25T09:34:55.463Z,4.00
2019-05-25T09:37:22.269Z,3.73
2019-05-25T09:39:48.964Z,2.20
2019-05-25T09:42:15.977Z,3.63
2019-05-25T09:44:42.627Z,3.53
2019-05-25T09:47:09.274Z,3.43
2019-05-25T09:49:35.984Z,3.57
2019-05-25T09:52:02.797Z,3.30
2019-05-25T09:54:29.720Z,3.70
2019-05-25T09:56:56.408Z,5.73
2019-05-25T09:59:23.288Z,5.80
2019-05-25T10:01:50.134Z,3.40
2019-05-25T10:04:17.013Z,3.63
2019-05-25T10:06:43.986Z,3.33
2019-05-25T10:09:10.645Z,5.03
2019-05-25T10:11:37.326Z,6.17
2019-05-25T10:14:04.983Z,4.07
2019-05-25T10:16:31.805Z,2.37
2019-05-25T10:18:58.804Z,3.67
2019-05-25T10:21:25.600Z,2.53
2019-05-25T10:23:52.306Z,3.87
2019-05-25T10:26:22.896Z,2.37
2019-05-25T10:28:47.872Z,3.30
2019-05-25T10:31:14.601Z,2.77
2019-05-25T10:33:41.327Z,2.60
2019-05-25T10:36:08.147Z,3.50
2019-05-25T10:38:34.841Z,3.93
2019-05-25T10:41:01.822Z,2.07
2019-05-25T10:43:29.273Z,2.87
2019-05-25T10:45:56.603Z,4.90
2019-05-25T10:48:23.292Z,2.73
2019-05-25T10:50:50.417Z,2.37
2019-05-25T10:53:17.213Z,2.67
2019-05-25T10:55:44.170Z,2.37
2019-05-25T10:58:11.157Z,2.40
2019-05-25T11:00:39.067Z,3.07
2019-05-25T11:03:05.763Z,2.43
2019-05-25T11:05:32.833Z,3.07
2019-05-25T11:07:59.558Z,2.60
2019-05-25T11:10:26.472Z,2.70
2019-05-25T11:12:53.290Z,5.00
2019-05-25T11:15:20.101Z,3.20
2019-05-25T11:17:46.929Z,3.30
2019-05-25T11:20:14.509Z,2.60
2019-05-25T11:22:41.154Z,3.17
2019-05-25T11:25:10.338Z,2.70
2019-05-25T11:27:37.240Z,3.00
2019-05-25T11:30:09.459Z,2.87
2019-05-25T11:32:33.877Z,2.50
2019-05-25T11:35:00.592Z,2.70
2019-05-25T11:37:27.257Z,3.30
2019-05-25T11:39:54.023Z,2.20
2019-05-25T11:42:20.746Z,2.53
2019-05-25T11:44:47.588Z,3.23
2019-05-25T11:47:14.330Z,2.37
2019-05-25T11:49:41.071Z,2.27
2019-05-25T11:52:07.900Z,2.47
2019-05-25T11:54:34.570Z,3.30
2019-05-25T11:57:01.302Z,1.60
2019-05-25T11:59:27.985Z,1.20
2019-05-25T12:01:54.718Z,1.10
2019-05-25T12:04:21.605Z,1.03
2019-05-25T12:06:48.273Z,2.33
2019-05-25T12:09:15.484Z,1.20
2019-05-25T12:11:42.148Z,1.07
2019-05-25T12:14:08.901Z,1.63
2019-05-25T12:16:35.579Z,1.07
2019-05-25T12:19:02.336Z,2.43
2019-05-25T12:21:29.201Z,1.40
2019-05-25T12:23:55.996Z,1.57
2019-05-25T12:26:22.819Z,1.17
2019-05-25T12:28:49.471Z,1.20
2019-05-25T12:31:16.197Z,1.00
2019-05-25T12:33:42.927Z,1.30
2019-05-25T12:36:10.095Z,1.30
2019-05-25T12:38:36.803Z,1.30
2019-05-25T12:41:05.770Z,2.93
2019-05-25T12:43:32.494Z,1.63
2019-05-25T12:45:59.310Z,2.53
2019-05-25T12:48:25.959Z,1.83
2019-05-25T12:50:52.998Z,1.60
2019-05-25T12:53:19.758Z,2.27
2019-05-25T12:55:46.680Z,2.20
2019-05-25T12:58:13.536Z,2.77
2019-05-25T13:00:53.459Z,2.20
2019-05-25T13:03:10.885Z,2.27
2019-05-25T13:05:37.403Z,2.60
2019-05-25T13:08:05.431Z,2.00
2019-05-25T13:10:32.165Z,4.07
2019-05-25T13:13:01.912Z,3.00
2019-05-25T13:15:27.464Z,2.60
2019-05-25T13:17:54.744Z,3.13
2019-05-25T13:20:22.609Z,3.97
2019-05-25T13:22:49.538Z,2.90
2019-05-25T13:25:16.881Z,3.10
2019-05-25T13:27:43.751Z,2.70
2019-05-25T13:30:10.591Z,2.63
2019-05-25T13:32:37.773Z,4.07
2019-05-25T13:35:05.055Z,3.73
2019-05-25T13:37:31.957Z,3.13
2019-05-25T13:39:58.627Z,4.07
2019-05-25T13:42:25.369Z,3.07
2019-05-25T13:44:52.396Z,3.07
2019-05-25T13:47:19.152Z,3.53
2019-05-25T13:49:45.837Z,3.23
2019-05-25T13:52:12.557Z,2.80
2019-05-25T13:54:39.741Z,2.57
2019-05-25T13:57:06.540Z,3.60
2019-05-25T13:59:33.289Z,2.73
2019-05-25T14:02:00.212Z,2.70
2019-05-25T14:04:26.896Z,3.13
2019-05-25T14:06:53.679Z,2.10
2019-05-25T14:09:20.397Z,1.70
2019-05-25T14:11:47.114Z,3.30
2019-05-25T14:14:14.183Z,3.63
2019-05-25T14:16:41.069Z,2.03
2019-05-25T14:19:07.974Z,2.53
2019-05-25T14:21:34.720Z,2.10
2019-05-25T14:24:01.974Z,1.87
2019-05-25T14:26:28.765Z,1.63
2019-05-25T14:28:55.582Z,2.07
2019-05-25T14:31:22.466Z,2.47
2019-05-25T14:33:49.221Z,1.97
2019-05-25T14:36:15.893Z,2.20
2019-05-25T14:38:42.648Z,2.30
2019-05-25T14:41:14.055Z,2.70
2019-05-25T14:43:40.878Z,2.57
2019-05-25T14:46:07.724Z,4.13
2019-05-25T14:48:34.593Z,3.07
2019-05-25T14:51:01.635Z,2.60
2019-05-25T14:53:28.463Z,3.17
2019-05-25T14:55:55.111Z,4.67
2019-05-25T14:58:21.868Z,4.70
2019-05-25T15:00:50.976Z,2.67
2019-05-25T15:03:18.010Z,3.10
2019-05-25T15:05:44.809Z,3.40
2019-05-25T15:08:11.628Z,3.03
2019-05-25T15:10:38.557Z,3.63
2019-05-25T15:13:05.500Z,2.40
2019-05-25T15:15:32.288Z,2.80
2019-05-25T15:17:59.098Z,3.20
2019-05-25T15:20:26.077Z,3.50
2019-05-25T15:22:52.755Z,2.83
2019-05-25T15:25:19.395Z,3.77
2019-05-25T15:27:46.302Z,3.03
2019-05-25T15:30:13.484Z,2.30
2019-05-25T15:32:40.469Z,3.07
2019-05-25T15:35:07.232Z,2.70
2019-05-25T15:37:33.932Z,2.13
2019-05-25T15:40:00.707Z,2.40
2019-05-25T15:42:28.697Z,2.97
2019-05-25T15:44:56.464Z,1.83
2019-05-25T15:47:23.611Z,2.20
2019-05-25T15:49:50.528Z,2.40
2019-05-25T15:52:17.377Z,2.53
2019-05-25T15:54:44.290Z,2.30
2019-05-25T15:57:11.220Z,2.43
2019-05-25T15:59:38.056Z,2.40
2019-05-25T16:02:05.246Z,2.97
2019-05-25T16:04:32.133Z,2.43
2019-05-25T16:06:58.814Z,2.07
2019-05-25T16:09:25.504Z,2.47
2019-05-25T16:11:52.454Z,3.77
2019-05-25T16:14:19.604Z,3.90
2019-05-25T16:16:46.349Z,2.43
2019-05-25T16:19:13.480Z,2.33
2019-05-25T16:21:40.284Z,2.10
2019-05-25T16:24:08.185Z,2.13
2019-05-25T16:26:45.360Z,2.43
2019-05-25T16:29:03.629Z,2.90
2019-05-25T16:31:30.601Z,5.37
2019-05-25T16:33:57.550Z,2.20
2019-05-25T16:36:24.207Z,1.73
2019-05-25T16:38:51.060Z,1.90
2019-05-25T16:41:17.801Z,1.97
2019-05-25T16:43:44.849Z,3.77
2019-05-25T16:46:11.765Z,2.93
2019-05-25T16:48:38.434Z,2.47
2019-05-25T16:51:05.380Z,2.07
2019-05-25T16:53:32.157Z,3.13
2019-05-25T16:55:58.967Z,1.73
2019-05-25T16:58:25.723Z,1.30
2019-05-25T17:00:52.272Z,2.47
2019-05-25T17:03:28.254Z,1.67
2019-05-25T17:05:47.683Z,2.70
2019-05-25T17:08:14.460Z,2.20
2019-05-25T17:10:41.373Z,1.83
2019-05-25T17:13:08.016Z,2.10
2019-05-25T17:15:34.786Z,2.07
2019-05-25T17:18:04.602Z,2.53
2019-05-25T17:20:30.120Z,3.60
2019-05-25T17:22:56.757Z,2.30
2019-05-25T17:25:23.438Z,2.70
2019-05-25T17:27:50.057Z,2.17
2019-05-25T17:30:25.392Z,3.53
2019-05-25T17:32:52.130Z,3.43
2019-05-25T17:35:18.900Z,3.07
2019-05-25T17:37:45.726Z,2.63
2019-05-25T17:40:12.505Z,2.47
2019-05-25T17:42:39.306Z,2.53
2019-05-25T17:45:06.376Z,2.70
2019-05-25T17:47:33.160Z,2.13
2019-05-25T17:50:00.153Z,3.10
2019-05-25T17:52:26.831Z,2.37
2019-05-25T17:54:53.629Z,3.70
2019-05-25T17:57:20.400Z,3.70
2019-05-25T17:59:47.076Z,2.63
2019-05-25T18:02:13.952Z,3.33
2019-05-25T18:04:40.509Z,2.53
2019-05-25T18:07:07.242Z,2.83
2019-05-25T18:09:33.995Z,3.50
2019-05-25T18:12:00.657Z,2.57
2019-05-25T18:14:27.357Z,2.30
2019-05-25T18:16:54.015Z,2.67
2019-05-25T18:19:20.758Z,2.87
2019-05-25T18:21:47.428Z,2.40
2019-05-25T18:24:14.387Z,2.47
2019-05-25T18:26:41.373Z,2.97
2019-05-25T18:29:08.278Z,3.10
2019-05-25T18:31:35.073Z,3.53
2019-05-25T18:34:01.810Z,2.50
2019-05-25T18:36:28.616Z,2.77
2019-05-25T18:38:55.186Z,3.00
2019-05-25T18:41:22.121Z,1.83
2019-05-25T18:43:49.010Z,3.50
2019-05-25T18:46:15.708Z,2.60
2019-05-25T18:48:42.645Z,2.60
2019-05-25T18:51:09.442Z,2.50
2019-05-25T18:53:36.144Z,2.67
2019-05-25T18:56:02.934Z,2.87
2019-05-25T18:58:29.719Z,2.83
2019-05-25T19:00:56.528Z,3.13
2019-05-25T19:03:23.255Z,2.23
2019-05-25T19:05:50.434Z,3.40
2019-05-25T19:08:17.259Z,3.10
2019-05-25T19:10:45.928Z,2.40
2019-05-25T19:13:12.961Z,3.07
2019-05-25T19:15:39.772Z,3.20
2019-05-25T19:18:06.768Z,2.83
2019-05-25T19:20:33.500Z,3.63
2019-05-25T19:23:00.202Z,3.03
2019-05-25T19:25:27.158Z,3.00
2019-05-25T19:27:53.954Z,3.80
2019-05-25T19:30:20.934Z,3.57
2019-05-25T19:32:47.871Z,2.83
2019-05-25T19:35:14.725Z,2.70
2019-05-25T19:37:42.654Z,2.40
2019-05-25T19:40:09.779Z,2.53
2019-05-25T19:42:36.612Z,4.47
2019-05-25T19:45:03.695Z,4.73
2019-05-25T19:47:30.549Z,2.70
2019-05-25T19:49:57.376Z,2.90
2019-05-25T19:52:24.476Z,4.07
2019-05-25T19:54:51.372Z,2.87
2019-05-25T19:57:18.312Z,2.30
2019-05-25T19:59:45.169Z,2.47
2019-05-25T20:02:12.397Z,2.83
2019-05-25T20:04:39.305Z,3.53
2019-05-25T20:07:06.197Z,3.30
2019-05-25T20:09:33.522Z,2.57
2019-05-25T20:12:00.470Z,3.40
2019-05-25T20:14:27.279Z,3.97
2019-05-25T20:16:54.119Z,4.13
2019-05-25T20:19:21.040Z,2.67
2019-05-25T20:21:47.854Z,3.07
2019-05-25T20:24:14.713Z,3.67
2019-05-25T20:26:41.551Z,2.70
2019-05-25T20:29:08.423Z,4.70
2019-05-25T20:31:36.142Z,4.43
2019-05-25T20:34:03.075Z,4.13
2019-05-25T20:36:30.616Z,2.83
2019-05-25T20:38:57.410Z,3.90
2019-05-25T20:41:24.104Z,2.67
2019-05-25T20:43:50.945Z,3.43
2019-05-25T20:46:17.752Z,7.07
2019-05-25T20:48:44.639Z,4.07
2019-05-25T20:51:11.357Z,4.10
2019-05-25T20:53:38.086Z,3.93
2019-05-25T20:56:04.850Z,4.50
2019-05-25T20:58:31.720Z,5.50
2019-05-25T21:00:58.495Z,5.63
2019-05-25T21:03:25.198Z,5.33
2019-05-25T21:05:59.103Z,5.23
2019-05-25T21:08:26.118Z,4.37
2019-05-25T21:10:52.981Z,3.63
2019-05-25T21:13:19.890Z,3.47
2019-05-25T21:15:46.575Z,3.63
2019-05-25T21:18:15.981Z,5.90
2019-05-25T21:20:42.877Z,4.37
2019-05-25T21:23:11.846Z,3.47
2019-05-25T21:25:38.835Z,4.17
2019-05-25T21:28:05.718Z,3.73
2019-05-25T21:30:32.758Z,3.60
2019-05-25T21:32:59.550Z,7.10
2019-05-25T21:35:26.588Z,4.03
2019-05-25T21:37:53.616Z,4.80
2019-05-25T21:40:20.386Z,12.20
2019-05-25T21:42:47.138Z,13.30
2019-05-25T21:45:13.967Z,7.70
2019-05-25T21:47:40.629Z,4.17
2019-05-25T21:50:07.667Z,3.80
2019-05-25T21:52:34.536Z,6.80
2019-05-25T21:55:01.585Z,5.97
2019-05-25T21:57:28.332Z,3.73
2019-05-25T21:59:55.074Z,3.80
2019-05-25T22:02:22.011Z,4.23
2019-05-25T22:04:48.764Z,4.10
2019-05-25T22:07:15.605Z,4.40
2019-05-25T22:09:42.387Z,4.87
2019-05-25T22:12:09.126Z,3.13
2019-05-25T22:14:36.175Z,3.77
2019-05-25T22:17:02.997Z,4.87
2019-05-25T22:19:29.752Z,3.67
2019-05-25T22:21:56.322Z,4.10
2019-05-25T22:24:23.074Z,3.23
2019-05-25T22:26:49.751Z,3.93
2019-05-25T22:29:16.376Z,10.17
2019-05-25T22:31:43.109Z,5.73
2019-05-25T22:34:09.822Z,4.77
2019-05-25T22:36:40.789Z,4.17
2019-05-25T22:39:05.985Z,4.10
2019-05-25T22:41:32.731Z,4.23
2019-05-25T22:43:59.608Z,4.17
2019-05-25T22:46:26.245Z,3.93
2019-05-25T22:48:52.930Z,5.90
2019-05-25T22:51:19.502Z,3.73
2019-05-25T22:53:46.265Z,3.60
2019-05-25T22:56:12.994Z,4.47
2019-05-25T22:58:39.643Z,5.67
2019-05-25T23:01:06.326Z,4.23
2019-05-25T23:03:33.074Z,3.97
2019-05-25T23:05:59.719Z,4.90
2019-05-25T23:08:26.562Z,31.13
2019-05-25T23:10:53.379Z,8.50
2019-05-25T23:13:20.265Z,5.63
2019-05-25T23:15:46.808Z,4.27
2019-05-25T23:18:13.581Z,3.23
2019-05-25T23:20:40.239Z,4.43
2019-05-25T23:23:07.882Z,3.97
2019-05-25T23:25:34.704Z,4.10
2019-05-25T23:28:02.555Z,6.80
2019-05-25T23:30:29.189Z,5.03
2019-05-25T23:32:56.155Z,5.87
2019-05-25T23:35:22.886Z,3.80
2019-05-25T23:37:49.663Z,5.27
2019-05-25T23:40:16.497Z,4.33
2019-05-25T23:42:43.085Z,3.70
2019-05-25T23:45:09.992Z,5.47
2019-05-25T23:47:36.848Z,4.33
2019-05-25T23:50:04.980Z,4.20
2019-05-25T23:52:31.653Z,4.57
2019-05-25T23:54:58.399Z,4.63
2019-05-25T23:57:25.244Z,6.57
2019-05-25T23:59:52.293Z,5.67
